sensor_id;sensor_type;location;lat;lon;timestamp;temperature;humidity
15705;DHT22;7952;48.396;12.806;2023-03-17T00:00:40;5.50;44.20
15705;DHT22;7952;48.396;12.806;2023-03-17T00:03:09;5.50;44.20
15705;DHT22;7952;48.396;12.806;2023-03-17T00:05:35;5.40;44.20
15705;DHT22;7952;48.396;12.806;2023-03-17T00:08:13;5.40;44.20
15705;DHT22;7952;48.396;12.806;2023-03-17T00:10:40;5.40;44.20
15705;DHT22;7952;48.396;12.806;2023-03-17T00:13:05;5.40;44.20
15705;DHT22;7952;48.396;12.806;2023-03-17T00:15:31;5.40;44.30
15705;DHT22;7952;48.396;12.806;2023-03-17T00:17:57;5.30;44.30
15705;DHT22;7952;48.396;12.806;2023-03-17T00:20:31;5.30;44.30
15705;DHT22;7952;48.396;12.806;2023-03-17T00:22:58;5.20;44.30
15705;DHT22;7952;48.396;12.806;2023-03-17T00:25:27;5.20;44.40
15705;DHT22;7952;48.396;12.806;2023-03-17T00:27:55;5.20;44.40
15705;DHT22;7952;48.396;12.806;2023-03-17T00:30:21;5.20;44.40
15705;DHT22;7952;48.396;12.806;2023-03-17T00:32:51;5.20;44.40
15705;DHT22;7952;48.396;12.806;2023-03-17T00:35:21;5.20;44.50
15705;DHT22;7952;48.396;12.806;2023-03-17T00:37:48;5.10;44.40
15705;DHT22;7952;48.396;12.806;2023-03-17T00:42:44;5.10;44.50
15705;DHT22;7952;48.396;12.806;2023-03-17T00:45:10;5.10;44.40
15705;DHT22;7952;48.396;12.806;2023-03-17T00:47:36;5.10;44.50
15705;DHT22;7952;48.396;12.806;2023-03-17T00:50:03;5.10;45.10
15705;DHT22;7952;48.396;12.806;2023-03-17T00:52:30;5.00;44.50
15705;DHT22;7952;48.396;12.806;2023-03-17T00:54:55;5.10;44.60
15705;DHT22;7952;48.396;12.806;2023-03-17T00:57:21;5.00;44.50
15705;DHT22;7952;48.396;12.806;2023-03-17T00:59:47;5.00;44.50
15705;DHT22;7952;48.396;12.806;2023-03-17T01:02:13;5.00;44.50
15705;DHT22;7952;48.396;12.806;2023-03-17T01:04:39;5.00;44.60
15705;DHT22;7952;48.396;12.806;2023-03-17T01:07:05;5.00;44.60
15705;DHT22;7952;48.396;12.806;2023-03-17T01:09:32;5.00;44.60
15705;DHT22;7952;48.396;12.806;2023-03-17T01:11:58;5.00;44.60
15705;DHT22;7952;48.396;12.806;2023-03-17T01:14:24;5.00;44.60
15705;DHT22;7952;48.396;12.806;2023-03-17T01:16:50;5.00;44.60
15705;DHT22;7952;48.396;12.806;2023-03-17T01:19:18;4.90;44.60
15705;DHT22;7952;48.396;12.806;2023-03-17T01:21:43;4.90;44.60
15705;DHT22;7952;48.396;12.806;2023-03-17T01:24:10;4.90;44.40
15705;DHT22;7952;48.396;12.806;2023-03-17T01:26:36;4.90;44.60
15705;DHT22;7952;48.396;12.806;2023-03-17T01:29:03;4.90;44.70
15705;DHT22;7952;48.396;12.806;2023-03-17T01:31:29;4.90;44.70
15705;DHT22;7952;48.396;12.806;2023-03-17T01:33:54;4.90;44.70
15705;DHT22;7952;48.396;12.806;2023-03-17T01:36:20;4.90;44.70
15705;DHT22;7952;48.396;12.806;2023-03-17T01:38:46;4.90;44.70
15705;DHT22;7952;48.396;12.806;2023-03-17T01:41:16;4.90;44.70
15705;DHT22;7952;48.396;12.806;2023-03-17T01:43:41;4.90;44.70
15705;DHT22;7952;48.396;12.806;2023-03-17T01:46:28;4.90;44.70
15705;DHT22;7952;48.396;12.806;2023-03-17T01:54:11;4.80;44.70
15705;DHT22;7952;48.396;12.806;2023-03-17T01:56:41;4.80;44.80
15705;DHT22;7952;48.396;12.806;2023-03-17T01:59:10;4.80;44.80
15705;DHT22;7952;48.396;12.806;2023-03-17T02:01:41;4.70;44.80
15705;DHT22;7952;48.396;12.806;2023-03-17T02:04:09;4.70;44.80
15705;DHT22;7952;48.396;12.806;2023-03-17T02:06:36;4.70;44.80
15705;DHT22;7952;48.396;12.806;2023-03-17T02:09:02;4.70;44.80
15705;DHT22;7952;48.396;12.806;2023-03-17T02:11:29;4.70;44.90
15705;DHT22;7952;48.396;12.806;2023-03-17T02:13:55;4.70;44.90
15705;DHT22;7952;48.396;12.806;2023-03-17T02:16:21;4.70;44.90
15705;DHT22;7952;48.396;12.806;2023-03-17T02:18:46;4.60;44.80
15705;DHT22;7952;48.396;12.806;2023-03-17T02:21:30;4.60;44.80
15705;DHT22;7952;48.396;12.806;2023-03-17T02:24:00;4.60;44.90
15705;DHT22;7952;48.396;12.806;2023-03-17T02:26:28;4.60;44.90
15705;DHT22;7952;48.396;12.806;2023-03-17T02:28:55;4.60;44.90
15705;DHT22;7952;48.396;12.806;2023-03-17T02:31:24;4.60;45.00
15705;DHT22;7952;48.396;12.806;2023-03-17T02:33:50;4.50;44.90
15705;DHT22;7952;48.396;12.806;2023-03-17T02:36:16;4.50;45.00
15705;DHT22;7952;48.396;12.806;2023-03-17T02:38:42;4.50;45.00
15705;DHT22;7952;48.396;12.806;2023-03-17T02:41:08;4.50;45.00
15705;DHT22;7952;48.396;12.806;2023-03-17T02:43:34;4.50;45.00
15705;DHT22;7952;48.396;12.806;2023-03-17T02:46:00;4.50;45.00
15705;DHT22;7952;48.396;12.806;2023-03-17T02:48:26;4.50;45.00
15705;DHT22;7952;48.396;12.806;2023-03-17T02:50:51;4.40;45.00
15705;DHT22;7952;48.396;12.806;2023-03-17T02:53:17;4.40;45.30
15705;DHT22;7952;48.396;12.806;2023-03-17T02:55:42;4.40;45.00
15705;DHT22;7952;48.396;12.806;2023-03-17T02:58:09;4.40;45.00
15705;DHT22;7952;48.396;12.806;2023-03-17T03:00:34;4.40;45.10
15705;DHT22;7952;48.396;12.806;2023-03-17T03:03:00;4.40;45.10
15705;DHT22;7952;48.396;12.806;2023-03-17T03:05:26;4.40;45.10
15705;DHT22;7952;48.396;12.806;2023-03-17T03:07:53;4.40;45.10
15705;DHT22;7952;48.396;12.806;2023-03-17T03:10:19;4.40;45.10
15705;DHT22;7952;48.396;12.806;2023-03-17T03:12:45;4.40;45.10
15705;DHT22;7952;48.396;12.806;2023-03-17T03:15:11;4.40;45.10
15705;DHT22;7952;48.396;12.806;2023-03-17T03:17:36;4.40;45.10
15705;DHT22;7952;48.396;12.806;2023-03-17T03:20:03;4.40;45.10
15705;DHT22;7952;48.396;12.806;2023-03-17T03:22:29;4.40;45.10
15705;DHT22;7952;48.396;12.806;2023-03-17T03:24:55;4.40;45.10
15705;DHT22;7952;48.396;12.806;2023-03-17T03:27:20;4.40;45.10
15705;DHT22;7952;48.396;12.806;2023-03-17T03:29:46;4.40;45.10
15705;DHT22;7952;48.396;12.806;2023-03-17T03:32:12;4.40;45.10
15705;DHT22;7952;48.396;12.806;2023-03-17T03:34:37;4.40;45.20
15705;DHT22;7952;48.396;12.806;2023-03-17T03:37:03;4.40;45.20
15705;DHT22;7952;48.396;12.806;2023-03-17T03:39:28;4.40;45.20
15705;DHT22;7952;48.396;12.806;2023-03-17T03:41:54;4.40;45.20
15705;DHT22;7952;48.396;12.806;2023-03-17T03:44:22;4.40;45.20
15705;DHT22;7952;48.396;12.806;2023-03-17T03:46:48;4.40;45.20
15705;DHT22;7952;48.396;12.806;2023-03-17T03:49:13;4.30;45.20
15705;DHT22;7952;48.396;12.806;2023-03-17T03:51:39;4.30;45.20
15705;DHT22;7952;48.396;12.806;2023-03-17T03:54:04;4.30;45.20
15705;DHT22;7952;48.396;12.806;2023-03-17T03:56:30;4.30;45.30
15705;DHT22;7952;48.396;12.806;2023-03-17T03:58:56;4.30;45.20
15705;DHT22;7952;48.396;12.806;2023-03-17T04:01:21;4.30;45.20
15705;DHT22;7952;48.396;12.806;2023-03-17T04:03:47;4.30;45.20
15705;DHT22;7952;48.396;12.806;2023-03-17T04:06:12;4.30;45.20
15705;DHT22;7952;48.396;12.806;2023-03-17T04:08:38;4.30;45.20
15705;DHT22;7952;48.396;12.806;2023-03-17T04:11:04;4.20;45.20
15705;DHT22;7952;48.396;12.806;2023-03-17T04:13:29;4.20;45.20
15705;DHT22;7952;48.396;12.806;2023-03-17T04:15:55;4.20;45.20
15705;DHT22;7952;48.396;12.806;2023-03-17T04:18:21;4.20;45.20
15705;DHT22;7952;48.396;12.806;2023-03-17T04:20:47;4.20;45.30
15705;DHT22;7952;48.396;12.806;2023-03-17T04:23:12;4.20;45.30
15705;DHT22;7952;48.396;12.806;2023-03-17T04:25:38;4.20;45.90
15705;DHT22;7952;48.396;12.806;2023-03-17T04:28:04;4.20;45.30
15705;DHT22;7952;48.396;12.806;2023-03-17T04:30:29;4.20;45.30
15705;DHT22;7952;48.396;12.806;2023-03-17T04:32:55;4.20;45.30
15705;DHT22;7952;48.396;12.806;2023-03-17T04:35:21;4.20;45.30
15705;DHT22;7952;48.396;12.806;2023-03-17T04:37:47;4.20;45.40
15705;DHT22;7952;48.396;12.806;2023-03-17T04:40:13;4.20;45.40
15705;DHT22;7952;48.396;12.806;2023-03-17T04:42:40;4.20;45.40
15705;DHT22;7952;48.396;12.806;2023-03-17T04:45:07;4.20;45.40
15705;DHT22;7952;48.396;12.806;2023-03-17T04:47:33;4.20;45.40
15705;DHT22;7952;48.396;12.806;2023-03-17T04:49:59;4.20;45.40
15705;DHT22;7952;48.396;12.806;2023-03-17T04:52:25;4.20;45.50
15705;DHT22;7952;48.396;12.806;2023-03-17T04:54:51;4.20;45.50
15705;DHT22;7952;48.396;12.806;2023-03-17T04:57:17;4.20;46.00
15705;DHT22;7952;48.396;12.806;2023-03-17T04:59:43;4.20;45.40
15705;DHT22;7952;48.396;12.806;2023-03-17T05:02:08;4.20;45.30
15705;DHT22;7952;48.396;12.806;2023-03-17T05:04:34;4.30;45.30
15705;DHT22;7952;48.396;12.806;2023-03-17T05:07:00;4.30;45.30
15705;DHT22;7952;48.396;12.806;2023-03-17T05:09:27;4.30;45.30
15705;DHT22;7952;48.396;12.806;2023-03-17T05:11:53;4.30;45.30
15705;DHT22;7952;48.396;12.806;2023-03-17T05:14:19;4.30;45.30
15705;DHT22;7952;48.396;12.806;2023-03-17T05:16:48;4.30;45.30
15705;DHT22;7952;48.396;12.806;2023-03-17T05:19:14;4.30;45.30
15705;DHT22;7952;48.396;12.806;2023-03-17T05:21:40;4.40;45.40
15705;DHT22;7952;48.396;12.806;2023-03-17T05:24:07;4.40;45.40
15705;DHT22;7952;48.396;12.806;2023-03-17T05:26:33;4.40;45.40
15705;DHT22;7952;48.396;12.806;2023-03-17T05:28:59;4.40;45.40
15705;DHT22;7952;48.396;12.806;2023-03-17T05:31:25;4.40;45.40
15705;DHT22;7952;48.396;12.806;2023-03-17T05:33:50;4.40;45.40
15705;DHT22;7952;48.396;12.806;2023-03-17T05:36:16;4.50;45.50
15705;DHT22;7952;48.396;12.806;2023-03-17T05:38:42;4.50;45.50
15705;DHT22;7952;48.396;12.806;2023-03-17T05:41:08;4.50;45.50
15705;DHT22;7952;48.396;12.806;2023-03-17T05:43:35;4.60;45.50
15705;DHT22;7952;48.396;12.806;2023-03-17T05:46:01;4.60;45.50
15705;DHT22;7952;48.396;12.806;2023-03-17T05:48:26;4.70;45.50
15705;DHT22;7952;48.396;12.806;2023-03-17T05:50:52;4.70;45.50
15705;DHT22;7952;48.396;12.806;2023-03-17T05:53:17;4.80;45.50
15705;DHT22;7952;48.396;12.806;2023-03-17T05:55:43;4.80;45.50
15705;DHT22;7952;48.396;12.806;2023-03-17T05:58:09;5.00;45.60
15705;DHT22;7952;48.396;12.806;2023-03-17T06:00:35;5.10;45.60
15705;DHT22;7952;48.396;12.806;2023-03-17T06:03:01;5.20;45.50
15705;DHT22;7952;48.396;12.806;2023-03-17T06:05:28;5.30;45.40
15705;DHT22;7952;48.396;12.806;2023-03-17T06:07:54;5.40;45.50
15705;DHT22;7952;48.396;12.806;2023-03-17T06:10:19;5.50;45.60
15705;DHT22;7952;48.396;12.806;2023-03-17T06:12:45;5.70;45.60
15705;DHT22;7952;48.396;12.806;2023-03-17T06:15:11;5.90;45.90
15705;DHT22;7952;48.396;12.806;2023-03-17T06:17:37;6.10;45.60
15705;DHT22;7952;48.396;12.806;2023-03-17T06:20:04;6.30;45.40
15705;DHT22;7952;48.396;12.806;2023-03-17T06:22:30;6.40;45.20
15705;DHT22;7952;48.396;12.806;2023-03-17T06:24:55;6.40;45.10
15705;DHT22;7952;48.396;12.806;2023-03-17T06:27:21;6.60;45.50
15705;DHT22;7952;48.396;12.806;2023-03-17T06:29:46;7.00;46.10
15705;DHT22;7952;48.396;12.806;2023-03-17T06:32:12;7.50;46.40
15705;DHT22;7952;48.396;12.806;2023-03-17T06:34:38;8.00;46.60
15705;DHT22;7952;48.396;12.806;2023-03-17T06:37:03;8.60;46.60
15705;DHT22;7952;48.396;12.806;2023-03-17T06:39:29;9.20;46.40
15705;DHT22;7952;48.396;12.806;2023-03-17T06:41:55;9.70;46.20
15705;DHT22;7952;48.396;12.806;2023-03-17T06:44:20;10.20;44.80
15705;DHT22;7952;48.396;12.806;2023-03-17T06:46:46;10.60;44.40
15705;DHT22;7952;48.396;12.806;2023-03-17T06:49:12;10.90;44.00
15705;DHT22;7952;48.396;12.806;2023-03-17T06:51:46;11.10;43.80
15705;DHT22;7952;48.396;12.806;2023-03-17T06:57:54;11.70;43.40
15705;DHT22;7952;48.396;12.806;2023-03-17T07:00:20;11.90;43.00
15705;DHT22;7952;48.396;12.806;2023-03-17T07:02:46;12.00;42.90
15705;DHT22;7952;48.396;12.806;2023-03-17T07:05:12;12.00;42.50
15705;DHT22;7952;48.396;12.806;2023-03-17T07:07:38;12.00;42.30
15705;DHT22;7952;48.396;12.806;2023-03-17T07:10:05;12.00;42.20
15705;DHT22;7952;48.396;12.806;2023-03-17T07:12:31;11.90;42.00
15705;DHT22;7952;48.396;12.806;2023-03-17T07:14:57;11.70;41.70
15705;DHT22;7952;48.396;12.806;2023-03-17T07:17:24;11.60;41.60
15705;DHT22;7952;48.396;12.806;2023-03-17T07:19:50;11.40;41.60
15705;DHT22;7952;48.396;12.806;2023-03-17T07:22:16;11.30;41.70
15705;DHT22;7952;48.396;12.806;2023-03-17T07:24:45;11.20;41.70
15705;DHT22;7952;48.396;12.806;2023-03-17T07:27:17;11.10;41.60
15705;DHT22;7952;48.396;12.806;2023-03-17T07:29:43;11.00;41.70
15705;DHT22;7952;48.396;12.806;2023-03-17T07:32:18;11.00;41.70
15705;DHT22;7952;48.396;12.806;2023-03-17T07:35:25;11.00;41.80
15705;DHT22;7952;48.396;12.806;2023-03-17T07:38:12;11.10;42.40
15705;DHT22;7952;48.396;12.806;2023-03-17T07:43:43;11.60;42.20
15705;DHT22;7952;48.396;12.806;2023-03-17T07:46:09;11.80;42.10
15705;DHT22;7952;48.396;12.806;2023-03-17T07:48:35;12.20;42.40
15705;DHT22;7952;48.396;12.806;2023-03-17T07:51:13;12.40;42.30
15705;DHT22;7952;48.396;12.806;2023-03-17T07:57:01;13.10;42.30
15705;DHT22;7952;48.396;12.806;2023-03-17T08:13:26;14.50;40.50
15705;DHT22;7952;48.396;12.806;2023-03-17T09:03:49;17.40;39.60
15705;DHT22;7952;48.396;12.806;2023-03-17T09:10:11;17.60;39.00
15705;DHT22;7952;48.396;12.806;2023-03-17T10:30:24;15.80;37.90
15705;DHT22;7952;48.396;12.806;2023-03-17T12:40:12;16.60;37.00
15705;DHT22;7952;48.396;12.806;2023-03-17T15:34:34;16.20;37.80
15705;DHT22;7952;48.396;12.806;2023-03-17T16:41:50;14.90;38.80
15705;DHT22;7952;48.396;12.806;2023-03-17T16:44:38;14.80;38.90
15705;DHT22;7952;48.396;12.806;2023-03-17T16:47:05;14.80;39.10
15705;DHT22;7952;48.396;12.806;2023-03-17T16:56:48;14.70;39.20
15705;DHT22;7952;48.396;12.806;2023-03-17T16:59:32;14.60;39.20
15705;DHT22;7952;48.396;12.806;2023-03-17T17:02:01;14.50;39.20
15705;DHT22;7952;48.396;12.806;2023-03-17T18:01:58;13.30;39.90
15705;DHT22;7952;48.396;12.806;2023-03-17T18:04:46;13.30;39.90
15705;DHT22;7952;48.396;12.806;2023-03-17T18:08:05;13.20;40.60
15705;DHT22;7952;48.396;12.806;2023-03-17T18:10:31;13.20;40.00
15705;DHT22;7952;48.396;12.806;2023-03-17T18:16:37;13.00;40.00
15705;DHT22;7952;48.396;12.806;2023-03-17T18:19:05;13.00;40.10
15705;DHT22;7952;48.396;12.806;2023-03-17T18:21:40;13.00;40.20
15705;DHT22;7952;48.396;12.806;2023-03-17T18:24:07;12.90;40.10
15705;DHT22;7952;48.396;12.806;2023-03-17T18:26:33;12.90;40.20
15705;DHT22;7952;48.396;12.806;2023-03-17T18:32:08;12.80;40.20
15705;DHT22;7952;48.396;12.806;2023-03-17T18:34:39;12.80;40.20
15705;DHT22;7952;48.396;12.806;2023-03-17T18:37:09;12.70;40.20
15705;DHT22;7952;48.396;12.806;2023-03-17T18:39:37;12.70;40.30
15705;DHT22;7952;48.396;12.806;2023-03-17T18:42:04;12.70;40.30
15705;DHT22;7952;48.396;12.806;2023-03-17T18:44:30;12.60;40.20
15705;DHT22;7952;48.396;12.806;2023-03-17T18:46:55;12.60;40.30
15705;DHT22;7952;48.396;12.806;2023-03-17T18:49:21;12.60;40.40
15705;DHT22;7952;48.396;12.806;2023-03-17T18:51:49;12.50;40.20
15705;DHT22;7952;48.396;12.806;2023-03-17T18:54:16;12.50;40.30
15705;DHT22;7952;48.396;12.806;2023-03-17T18:56:41;12.50;40.30
15705;DHT22;7952;48.396;12.806;2023-03-17T18:59:07;12.50;40.30
15705;DHT22;7952;48.396;12.806;2023-03-17T19:01:33;12.50;40.30
15705;DHT22;7952;48.396;12.806;2023-03-17T19:04:02;12.50;40.40
15705;DHT22;7952;48.396;12.806;2023-03-17T19:06:29;12.40;40.30
15705;DHT22;7952;48.396;12.806;2023-03-17T19:08:54;12.40;40.30
15705;DHT22;7952;48.396;12.806;2023-03-17T19:11:20;12.40;40.30
15705;DHT22;7952;48.396;12.806;2023-03-17T19:13:46;12.40;40.30
15705;DHT22;7952;48.396;12.806;2023-03-17T19:16:12;12.30;40.20
15705;DHT22;7952;48.396;12.806;2023-03-17T19:18:39;12.30;40.20
15705;DHT22;7952;48.396;12.806;2023-03-17T19:21:07;12.30;40.20
15705;DHT22;7952;48.396;12.806;2023-03-17T19:23:34;12.30;40.20
15705;DHT22;7952;48.396;12.806;2023-03-17T19:26:01;12.30;40.20
15705;DHT22;7952;48.396;12.806;2023-03-17T19:28:27;12.30;40.20
15705;DHT22;7952;48.396;12.806;2023-03-17T19:30:52;12.30;40.20
15705;DHT22;7952;48.396;12.806;2023-03-17T19:33:20;12.30;40.20
15705;DHT22;7952;48.396;12.806;2023-03-17T19:35:54;12.30;40.20
15705;DHT22;7952;48.396;12.806;2023-03-17T19:38:21;12.30;40.20
15705;DHT22;7952;48.396;12.806;2023-03-17T19:40:47;12.30;40.20
15705;DHT22;7952;48.396;12.806;2023-03-17T19:43:26;12.30;40.20
15705;DHT22;7952;48.396;12.806;2023-03-17T19:45:52;12.30;40.20
15705;DHT22;7952;48.396;12.806;2023-03-17T19:48:18;12.20;40.10
15705;DHT22;7952;48.396;12.806;2023-03-17T19:50:45;12.20;40.00
15705;DHT22;7952;48.396;12.806;2023-03-17T19:53:11;12.20;40.00
15705;DHT22;7952;48.396;12.806;2023-03-17T19:55:37;12.20;40.00
15705;DHT22;7952;48.396;12.806;2023-03-17T19:58:03;12.20;39.90
15705;DHT22;7952;48.396;12.806;2023-03-17T20:00:31;12.20;39.90
15705;DHT22;7952;48.396;12.806;2023-03-17T20:02:58;12.20;39.80
15705;DHT22;7952;48.396;12.806;2023-03-17T20:05:24;12.20;39.80
15705;DHT22;7952;48.396;12.806;2023-03-17T20:07:50;12.20;39.70
15705;DHT22;7952;48.396;12.806;2023-03-17T20:10:16;12.20;39.80
15705;DHT22;7952;48.396;12.806;2023-03-17T20:12:42;12.20;39.70
15705;DHT22;7952;48.396;12.806;2023-03-17T20:15:10;12.20;39.70
15705;DHT22;7952;48.396;12.806;2023-03-17T20:17:38;12.20;39.70
15705;DHT22;7952;48.396;12.806;2023-03-17T20:20:06;12.20;39.60
15705;DHT22;7952;48.396;12.806;2023-03-17T20:22:32;12.20;39.50
15705;DHT22;7952;48.396;12.806;2023-03-17T20:24:58;12.20;39.50
15705;DHT22;7952;48.396;12.806;2023-03-17T20:27:23;12.20;39.50
15705;DHT22;7952;48.396;12.806;2023-03-17T20:29:49;12.20;39.40
15705;DHT22;7952;48.396;12.806;2023-03-17T20:32:15;12.20;39.40
15705;DHT22;7952;48.396;12.806;2023-03-17T20:34:43;12.20;39.40
15705;DHT22;7952;48.396;12.806;2023-03-17T20:37:09;12.20;39.40
15705;DHT22;7952;48.396;12.806;2023-03-17T20:39:36;12.20;39.40
15705;DHT22;7952;48.396;12.806;2023-03-17T20:42:02;12.20;39.40
15705;DHT22;7952;48.396;12.806;2023-03-17T20:44:32;12.20;39.40
15705;DHT22;7952;48.396;12.806;2023-03-17T20:47:01;12.10;39.30
15705;DHT22;7952;48.396;12.806;2023-03-17T20:49:28;12.10;39.40
15705;DHT22;7952;48.396;12.806;2023-03-17T20:51:54;12.10;39.40
15705;DHT22;7952;48.396;12.806;2023-03-17T20:54:20;12.10;39.40
15705;DHT22;7952;48.396;12.806;2023-03-17T20:56:47;12.10;39.40
15705;DHT22;7952;48.396;12.806;2023-03-17T20:59:17;12.00;39.40
15705;DHT22;7952;48.396;12.806;2023-03-17T21:01:44;12.00;39.40
15705;DHT22;7952;48.396;12.806;2023-03-17T21:04:09;12.00;39.50
15705;DHT22;7952;48.396;12.806;2023-03-17T21:06:37;12.00;39.50
15705;DHT22;7952;48.396;12.806;2023-03-17T21:09:03;11.90;39.50
15705;DHT22;7952;48.396;12.806;2023-03-17T21:11:29;11.90;39.60
15705;DHT22;7952;48.396;12.806;2023-03-17T21:13:55;11.90;39.60
15705;DHT22;7952;48.396;12.806;2023-03-17T21:16:24;11.90;39.60
15705;DHT22;7952;48.396;12.806;2023-03-17T21:18:51;11.90;39.60
15705;DHT22;7952;48.396;12.806;2023-03-17T21:21:17;11.80;39.60
15705;DHT22;7952;48.396;12.806;2023-03-17T21:23:56;11.80;39.60
15705;DHT22;7952;48.396;12.806;2023-03-17T21:26:56;11.80;39.60
15705;DHT22;7952;48.396;12.806;2023-03-17T21:29:20;11.70;39.50
15705;DHT22;7952;48.396;12.806;2023-03-17T21:31:47;11.70;39.40
15705;DHT22;7952;48.396;12.806;2023-03-17T21:34:12;11.70;39.50
15705;DHT22;7952;48.396;12.806;2023-03-17T21:36:38;11.70;39.50
15705;DHT22;7952;48.396;12.806;2023-03-17T21:39:04;11.60;39.40
15705;DHT22;7952;48.396;12.806;2023-03-17T21:41:46;11.60;39.40
15705;DHT22;7952;48.396;12.806;2023-03-17T21:44:59;11.60;39.40
15705;DHT22;7952;48.396;12.806;2023-03-17T21:51:14;11.60;39.50
15705;DHT22;7952;48.396;12.806;2023-03-17T21:53:43;11.50;39.50
15705;DHT22;7952;48.396;12.806;2023-03-17T21:59:47;11.50;39.50
15705;DHT22;7952;48.396;12.806;2023-03-17T22:02:25;11.40;39.50
15705;DHT22;7952;48.396;12.806;2023-03-17T22:08:41;11.40;39.60
15705;DHT22;7952;48.396;12.806;2023-03-17T22:12:18;11.30;39.60
15705;DHT22;7952;48.396;12.806;2023-03-17T22:24:40;11.20;39.80
15705;DHT22;7952;48.396;12.806;2023-03-17T22:30:29;11.10;39.80
15705;DHT22;7952;48.396;12.806;2023-03-17T22:36:10;11.00;39.80
15705;DHT22;7952;48.396;12.806;2023-03-17T22:38:35;11.00;39.90
15705;DHT22;7952;48.396;12.806;2023-03-17T22:41:05;10.90;39.90
15705;DHT22;7952;48.396;12.806;2023-03-17T22:43:33;10.90;40.00
15705;DHT22;7952;48.396;12.806;2023-03-17T22:46:20;10.80;40.00
15705;DHT22;7952;48.396;12.806;2023-03-17T22:48:46;10.80;40.00
15705;DHT22;7952;48.396;12.806;2023-03-17T22:51:19;10.80;40.00
15705;DHT22;7952;48.396;12.806;2023-03-17T22:53:45;10.70;40.00
15705;DHT22;7952;48.396;12.806;2023-03-17T22:56:12;10.60;40.00
15705;DHT22;7952;48.396;12.806;2023-03-17T22:58:38;10.60;40.10
15705;DHT22;7952;48.396;12.806;2023-03-17T23:01:05;10.50;40.00
15705;DHT22;7952;48.396;12.806;2023-03-17T23:03:32;10.50;40.20
15705;DHT22;7952;48.396;12.806;2023-03-17T23:05:59;10.30;40.10
15705;DHT22;7952;48.396;12.806;2023-03-17T23:08:27;10.30;40.20
15705;DHT22;7952;48.396;12.806;2023-03-17T23:10:58;10.30;40.20
15705;DHT22;7952;48.396;12.806;2023-03-17T23:13:25;10.30;40.30
15705;DHT22;7952;48.396;12.806;2023-03-17T23:15:52;10.20;40.20
15705;DHT22;7952;48.396;12.806;2023-03-17T23:18:17;10.20;40.20
15705;DHT22;7952;48.396;12.806;2023-03-17T23:20:44;10.10;40.30
15705;DHT22;7952;48.396;12.806;2023-03-17T23:23:10;10.10;40.30
15705;DHT22;7952;48.396;12.806;2023-03-17T23:25:37;10.10;40.30
15705;DHT22;7952;48.396;12.806;2023-03-17T23:28:03;10.00;40.30
15705;DHT22;7952;48.396;12.806;2023-03-17T23:30:29;10.00;40.30
15705;DHT22;7952;48.396;12.806;2023-03-17T23:32:56;10.00;40.30
15705;DHT22;7952;48.396;12.806;2023-03-17T23:35:22;10.00;40.40
15705;DHT22;7952;48.396;12.806;2023-03-17T23:37:47;9.90;41.30
15705;DHT22;7952;48.396;12.806;2023-03-17T23:40:15;9.90;41.30
15705;DHT22;7952;48.396;12.806;2023-03-17T23:42:45;9.90;41.40
15705;DHT22;7952;48.396;12.806;2023-03-17T23:45:16;9.90;41.40
15705;DHT22;7952;48.396;12.806;2023-03-17T23:47:42;9.80;41.30
15705;DHT22;7952;48.396;12.806;2023-03-17T23:50:09;9.80;41.30
15705;DHT22;7952;48.396;12.806;2023-03-17T23:52:35;9.80;41.30
15705;DHT22;7952;48.396;12.806;2023-03-17T23:55:02;9.70;41.30
15705;DHT22;7952;48.396;12.806;2023-03-17T23:57:28;9.70;41.30
15705;DHT22;7952;48.396;12.806;2023-03-17T23:59:54;9.60;41.30
